createdAt,value
2023-01-27T00:01:23.664Z,-1.30
2023-01-27T00:03:54.683Z,-1.30
2023-01-27T00:06:25.107Z,-1.30
2023-01-27T00:08:55.367Z,-1.30
2023-01-27T00:11:37.944Z,-1.30
2023-01-27T00:14:10.688Z,-1.40
2023-01-27T00:16:40.811Z,-1.40
2023-01-27T00:19:11.191Z,-1.40
2023-01-27T00:21:53.671Z,-1.40
2023-01-27T00:24:36.481Z,-1.40
2023-01-27T00:27:09.004Z,-1.50
2023-01-27T00:29:44.450Z,-1.50
2023-01-27T00:32:26.938Z,-1.50
2023-01-27T00:34:56.936Z,-1.50
2023-01-27T00:37:27.135Z,-1.40
2023-01-27T00:39:57.128Z,-1.50
2023-01-27T00:42:27.339Z,-1.50
2023-01-27T00:45:12.476Z,-1.50
2023-01-27T00:47:42.571Z,-1.50
2023-01-27T00:50:14.271Z,-1.60
2023-01-27T00:52:44.545Z,-1.60
2023-01-27T00:55:16.063Z,-1.70
2023-01-27T00:57:47.113Z,-1.70
2023-01-27T01:00:21.186Z,-1.60
2023-01-27T01:02:51.362Z,-1.50
2023-01-27T01:05:21.497Z,-1.50
2023-01-27T01:07:51.664Z,-1.50
2023-01-27T01:10:22.034Z,-1.50
2023-01-27T01:12:54.838Z,-1.50
2023-01-27T01:15:28.324Z,-1.50
2023-01-27T01:17:58.723Z,-1.50
2023-01-27T01:20:28.884Z,-1.40
2023-01-27T01:22:59.907Z,-1.40
2023-01-27T01:25:29.936Z,-1.40
2023-01-27T01:28:00.307Z,-1.40
2023-01-27T01:30:33.557Z,-1.50
2023-01-27T01:33:03.642Z,-1.40
2023-01-27T01:35:34.028Z,-1.50
2023-01-27T01:38:04.121Z,-1.50
2023-01-27T01:40:34.372Z,-1.60
2023-01-27T01:43:07.006Z,-1.50
2023-01-27T01:45:56.181Z,-1.50
2023-01-27T01:48:41.641Z,-1.40
2023-01-27T01:51:16.342Z,-1.40
2023-01-27T01:53:55.772Z,-1.40
2023-01-27T01:56:35.110Z,-1.30
2023-01-27T01:59:13.040Z,-1.40
2023-01-27T02:01:47.180Z,-1.50
2023-01-27T02:04:24.029Z,-1.50
2023-01-27T02:07:01.873Z,-1.40
2023-01-27T02:09:32.400Z,-1.40
2023-01-27T02:12:04.043Z,-1.40
2023-01-27T02:14:35.332Z,-1.40
2023-01-27T02:17:09.097Z,-1.30
2023-01-27T02:19:55.766Z,-1.40
2023-01-27T02:22:39.416Z,-1.30
2023-01-27T02:25:21.183Z,-1.30
2023-01-27T02:27:56.125Z,-1.40
2023-01-27T02:30:26.618Z,-1.30
2023-01-27T02:32:56.911Z,-1.40
2023-01-27T02:35:37.016Z,-1.40
2023-01-27T02:38:10.667Z,-1.30
2023-01-27T02:40:42.089Z,-1.40
2023-01-27T02:43:14.969Z,-1.30
2023-01-27T02:45:45.351Z,-1.20
2023-01-27T02:48:15.860Z,-1.20
2023-01-27T02:50:45.892Z,-1.30
2023-01-27T02:53:15.987Z,-1.30
2023-01-27T02:55:46.351Z,-1.30
2023-01-27T02:58:19.602Z,-1.40
2023-01-27T03:00:52.930Z,-1.30
2023-01-27T03:03:23.172Z,-1.30
2023-01-27T03:05:54.855Z,-1.50
2023-01-27T03:08:25.876Z,-1.50
2023-01-27T03:10:57.671Z,-1.50
2023-01-27T03:13:30.918Z,-1.50
2023-01-27T03:16:15.225Z,-1.40
2023-01-27T03:18:47.459Z,-1.40
2023-01-27T03:21:18.868Z,-1.30
2023-01-27T03:23:49.754Z,-1.30
2023-01-27T03:26:24.783Z,-1.30
2023-01-27T03:29:13.960Z,-1.20
2023-01-27T03:31:46.970Z,-1.20
2023-01-27T03:34:17.473Z,-1.30
2023-01-27T03:37:03.841Z,-1.40
2023-01-27T03:39:46.963Z,-1.50
2023-01-27T03:42:30.199Z,-1.50
2023-01-27T03:45:15.723Z,-1.40
2023-01-27T03:47:46.042Z,-1.40
2023-01-27T03:50:19.465Z,-1.50
2023-01-27T03:53:03.397Z,-1.50
2023-01-27T03:55:35.562Z,-1.50
2023-01-27T03:58:15.222Z,-1.60
2023-01-27T04:00:49.690Z,-1.50
2023-01-27T04:03:32.494Z,-1.40
2023-01-27T04:06:20.793Z,-1.30
2023-01-27T04:08:51.230Z,-1.60
2023-01-27T04:11:33.912Z,-1.50
2023-01-27T04:14:05.384Z,-1.50
2023-01-27T04:16:39.654Z,-1.30
2023-01-27T04:19:12.970Z,-1.30
2023-01-27T04:21:44.128Z,-1.50
2023-01-27T04:24:24.470Z,-1.50
2023-01-27T04:26:58.785Z,-1.60
2023-01-27T04:29:31.825Z,-1.60
2023-01-27T04:32:06.646Z,-1.60
2023-01-27T04:34:36.858Z,-1.60
2023-01-27T04:37:08.320Z,-1.60
2023-01-27T04:39:39.010Z,-1.70
2023-01-27T04:42:09.269Z,-1.80
2023-01-27T04:44:39.485Z,-1.80
2023-01-27T04:47:12.141Z,-1.60
2023-01-27T04:49:42.578Z,-1.60
2023-01-27T04:52:12.888Z,-1.70
2023-01-27T04:54:42.895Z,-1.70
2023-01-27T04:57:13.322Z,-1.60
2023-01-27T04:59:43.538Z,-1.70
2023-01-27T05:02:16.232Z,-1.60
2023-01-27T05:04:46.384Z,-1.50
2023-01-27T05:07:16.548Z,-1.50
2023-01-27T05:09:46.924Z,-1.40
2023-01-27T05:12:17.109Z,-1.40
2023-01-27T05:14:47.265Z,-1.40
2023-01-27T05:17:20.280Z,-1.30
2023-01-27T05:19:50.497Z,-1.20
2023-01-27T05:22:20.677Z,-1.20
2023-01-27T05:24:51.053Z,-1.20
2023-01-27T05:27:21.885Z,-1.20
2023-01-27T05:29:52.728Z,-1.20
2023-01-27T05:32:25.741Z,-1.20
2023-01-27T05:34:55.991Z,-1.20
2023-01-27T05:37:26.215Z,-1.20
2023-01-27T05:39:56.336Z,-1.20
2023-01-27T05:42:26.694Z,-1.30
2023-01-27T05:44:57.051Z,-1.40
2023-01-27T05:47:30.007Z,-1.40
2023-01-27T05:50:00.161Z,-1.40
2023-01-27T05:52:30.350Z,-1.40
2023-01-27T05:55:01.110Z,-1.40
2023-01-27T05:57:31.304Z,-1.30
2023-01-27T06:00:01.779Z,-1.20
2023-01-27T06:02:35.283Z,-1.40
2023-01-27T06:05:05.556Z,-1.30
2023-01-27T06:07:35.967Z,-1.30
2023-01-27T06:10:06.618Z,-1.30
2023-01-27T06:12:36.829Z,-1.30
2023-01-27T06:15:07.939Z,-1.30
2023-01-27T06:17:40.785Z,-1.30
2023-01-27T06:20:13.542Z,-1.40
2023-01-27T06:22:43.877Z,-1.50
2023-01-27T06:25:14.404Z,-1.60
2023-01-27T06:27:45.074Z,-1.60
2023-01-27T06:30:16.502Z,-1.60
2023-01-27T06:32:49.265Z,-1.50
2023-01-27T06:35:19.821Z,-1.50
2023-01-27T06:37:50.170Z,-1.40
2023-01-27T06:40:21.524Z,-1.40
2023-01-27T06:42:51.925Z,-1.30
2023-01-27T06:45:22.348Z,-1.30
2023-01-27T06:48:02.451Z,-1.40
2023-01-27T06:50:33.526Z,-1.40
2023-01-27T06:53:06.830Z,-1.30
2023-01-27T06:55:41.825Z,-1.30
2023-01-27T06:58:14.044Z,-1.20
2023-01-27T07:00:45.614Z,-1.30
2023-01-27T07:03:18.699Z,-1.10
2023-01-27T07:05:49.232Z,-1.10
2023-01-27T07:08:19.817Z,-1.20
2023-01-27T07:10:50.915Z,-1.00
2023-01-27T07:13:21.602Z,-1.00
2023-01-27T07:15:58.418Z,-1.00
2023-01-27T07:18:31.423Z,-1.00
2023-01-27T07:21:01.769Z,-1.00
2023-01-27T07:23:31.870Z,-1.00
2023-01-27T07:26:12.547Z,-1.10
2023-01-27T07:28:49.700Z,-1.10
2023-01-27T07:31:20.123Z,-1.10
2023-01-27T07:33:53.350Z,-1.00
2023-01-27T07:36:23.714Z,-0.80
2023-01-27T07:38:55.110Z,-0.80
2023-01-27T07:41:26.413Z,-0.70
2023-01-27T07:43:57.201Z,-0.50
2023-01-27T07:46:30.110Z,-0.60
2023-01-27T07:49:03.321Z,-0.60
2023-01-27T07:51:33.699Z,-0.60
2023-01-27T07:54:03.862Z,-0.70
2023-01-27T07:56:36.466Z,-0.60
2023-01-27T07:59:07.865Z,-0.70
2023-01-27T08:01:38.005Z,-0.60
2023-01-27T08:04:10.953Z,-0.60
2023-01-27T08:06:42.126Z,-0.60
2023-01-27T08:09:12.375Z,-0.60
2023-01-27T08:11:42.541Z,-0.50
2023-01-27T08:14:12.940Z,-0.70
2023-01-27T08:16:43.487Z,-0.60
2023-01-27T08:19:16.700Z,-0.60
2023-01-27T08:21:47.238Z,-0.70
2023-01-27T08:24:20.155Z,-0.70
2023-01-27T08:26:50.625Z,-0.70
2023-01-27T08:29:21.165Z,-0.60
2023-01-27T08:31:51.861Z,-0.70
2023-01-27T08:34:25.071Z,-0.80
2023-01-27T08:36:55.581Z,-0.80
2023-01-27T08:39:25.876Z,-0.80
2023-01-27T08:41:56.310Z,-0.80
2023-01-27T08:44:28.445Z,-0.70
2023-01-27T08:46:58.839Z,-0.60
2023-01-27T08:49:31.755Z,-0.70
2023-01-27T08:52:02.128Z,-0.60
2023-01-27T08:54:32.424Z,-0.50
2023-01-27T08:57:03.337Z,-0.50
2023-01-27T08:59:33.861Z,-0.60
2023-01-27T09:02:03.975Z,-0.60
2023-01-27T09:04:41.549Z,-0.70
2023-01-27T09:07:11.618Z,-0.70
2023-01-27T09:09:41.822Z,-0.70
2023-01-27T09:12:12.486Z,-0.70
2023-01-27T09:14:43.383Z,-0.70
2023-01-27T09:17:17.233Z,-0.70
2023-01-27T09:19:50.251Z,-0.70
2023-01-27T09:22:20.760Z,-0.60
2023-01-27T09:24:51.292Z,-0.60
2023-01-27T09:27:37.080Z,-0.50
2023-01-27T09:30:11.537Z,-0.50
2023-01-27T09:32:42.559Z,-0.60
2023-01-27T09:35:16.227Z,-0.50
2023-01-27T09:37:52.683Z,-0.40
2023-01-27T09:40:35.335Z,-0.40
2023-01-27T09:43:50.537Z,-0.30
2023-01-27T09:46:54.997Z,-0.50
2023-01-27T09:49:49.677Z,-0.40
2023-01-27T09:53:00.746Z,-0.50
2023-01-27T09:55:43.187Z,-0.30
2023-01-27T09:58:34.530Z,-0.20
2023-01-27T10:01:19.918Z,-0.10
2023-01-27T10:04:15.903Z,0.00
2023-01-27T10:07:30.356Z,-0.10
2023-01-27T10:10:29.641Z,0.00
2023-01-27T10:13:20.873Z,0.20
2023-01-27T10:16:14.145Z,0.20
2023-01-27T10:19:11.978Z,0.20
2023-01-27T10:21:59.604Z,0.30
2023-01-27T10:24:50.080Z,0.40
2023-01-27T10:27:26.654Z,0.40
2023-01-27T10:30:04.317Z,0.50
2023-01-27T10:32:48.145Z,0.40
2023-01-27T10:35:23.090Z,0.50
2023-01-27T10:38:14.366Z,0.50
2023-01-27T10:40:56.540Z,0.40
2023-01-27T10:43:41.600Z,0.40
2023-01-27T10:46:30.513Z,0.50
2023-01-27T10:49:09.714Z,0.40
2023-01-27T10:51:48.395Z,0.40
2023-01-27T10:54:29.694Z,0.50
2023-01-27T10:57:07.649Z,0.50
2023-01-27T11:00:18.036Z,0.40
2023-01-27T11:02:52.801Z,0.50
2023-01-27T11:05:32.968Z,0.70
2023-01-27T11:08:14.306Z,0.70
2023-01-27T11:11:03.431Z,0.80
2023-01-27T11:13:35.571Z,0.90
2023-01-27T11:16:16.556Z,0.90
2023-01-27T11:18:48.146Z,1.00
2023-01-27T11:21:24.693Z,0.90
2023-01-27T11:24:00.562Z,0.80
2023-01-27T11:26:41.226Z,0.80
2023-01-27T11:29:29.905Z,0.70
2023-01-27T11:32:11.454Z,0.70
2023-01-27T11:34:54.097Z,0.80
2023-01-27T11:37:32.502Z,0.90
2023-01-27T11:40:03.406Z,1.10
2023-01-27T11:42:37.928Z,1.20
2023-01-27T11:45:10.015Z,1.20
2023-01-27T11:47:46.270Z,1.10
2023-01-27T11:50:21.054Z,1.20
2023-01-27T11:52:57.191Z,1.30
2023-01-27T11:55:36.823Z,1.20
2023-01-27T11:58:22.402Z,1.10
2023-01-27T12:00:59.410Z,1.00
2023-01-27T12:03:55.413Z,0.90
2023-01-27T12:06:41.117Z,0.90
2023-01-27T12:09:34.382Z,0.80
2023-01-27T12:12:25.535Z,0.90
2023-01-27T12:14:58.698Z,0.90
2023-01-27T12:17:37.011Z,0.80
2023-01-27T12:20:30.029Z,0.80
2023-01-27T12:23:05.572Z,0.90
2023-01-27T12:25:50.686Z,0.80
2023-01-27T12:28:32.944Z,0.70
2023-01-27T12:31:11.716Z,0.70
2023-01-27T12:33:48.351Z,0.80
2023-01-27T12:36:25.423Z,0.90
2023-01-27T12:39:00.430Z,0.90
2023-01-27T12:41:34.087Z,0.80
2023-01-27T12:44:22.549Z,1.00
2023-01-27T12:47:05.192Z,1.10
2023-01-27T12:49:40.688Z,1.00
2023-01-27T12:52:23.103Z,0.90
2023-01-27T12:54:54.528Z,1.00
2023-01-27T12:57:29.715Z,1.00
2023-01-27T13:00:04.117Z,1.00
2023-01-27T13:02:36.905Z,1.20
2023-01-27T13:05:13.246Z,1.30
2023-01-27T13:07:50.844Z,1.50
2023-01-27T13:10:27.906Z,1.60
2023-01-27T13:13:01.336Z,1.70
2023-01-27T13:15:35.245Z,1.60
2023-01-27T13:18:22.885Z,1.50
2023-01-27T13:20:59.901Z,1.50
2023-01-27T13:23:40.731Z,1.50
2023-01-27T13:26:20.747Z,1.40
2023-01-27T13:28:58.406Z,1.30
2023-01-27T13:31:47.292Z,1.20
2023-01-27T13:34:29.856Z,1.10
2023-01-27T13:37:11.062Z,1.10
2023-01-27T13:40:06.416Z,1.10
2023-01-27T13:42:46.130Z,1.10
2023-01-27T13:45:21.939Z,0.90
2023-01-27T13:48:00.281Z,0.80
2023-01-27T13:50:38.281Z,0.80
2023-01-27T13:53:14.420Z,0.80
2023-01-27T13:56:04.724Z,0.80
2023-01-27T13:58:53.973Z,0.70
2023-01-27T14:01:31.799Z,0.70
2023-01-27T14:04:33.186Z,0.70
2023-01-27T14:07:22.106Z,0.60
2023-01-27T14:10:14.410Z,0.60
2023-01-27T14:13:09.341Z,0.60
2023-01-27T14:15:54.725Z,0.60
2023-01-27T14:18:29.719Z,0.50
2023-01-27T14:21:31.162Z,0.30
2023-01-27T14:24:27.112Z,0.40
2023-01-27T14:27:10.010Z,0.40
2023-01-27T14:29:54.947Z,0.40
2023-01-27T14:32:40.984Z,0.40
2023-01-27T14:35:37.230Z,0.30
2023-01-27T14:38:19.191Z,0.20
2023-01-27T14:41:14.850Z,0.20
2023-01-27T14:43:56.786Z,0.20
2023-01-27T14:46:58.991Z,0.20
2023-01-27T14:49:54.538Z,0.20
2023-01-27T14:52:41.954Z,0.30
2023-01-27T14:55:34.236Z,0.30
2023-01-27T14:58:43.871Z,0.20
2023-01-27T15:01:36.822Z,0.20
2023-01-27T15:04:36.047Z,0.20
2023-01-27T15:07:19.528Z,0.30
2023-01-27T15:10:26.148Z,0.40
2023-01-27T15:13:46.790Z,0.40
2023-01-27T15:16:59.636Z,0.30
2023-01-27T15:20:07.530Z,0.20
2023-01-27T15:22:59.598Z,0.10
2023-01-27T15:25:37.338Z,0.10
2023-01-27T15:28:15.457Z,0.00
2023-01-27T15:31:23.098Z,0.00
2023-01-27T15:34:00.691Z,0.10
2023-01-27T15:36:40.624Z,0.10
2023-01-27T15:39:35.572Z,0.10
2023-01-27T15:42:15.429Z,0.20
2023-01-27T15:45:03.306Z,0.20
2023-01-27T15:47:37.344Z,0.20
2023-01-27T15:50:22.279Z,0.20
2023-01-27T15:52:54.056Z,0.20
2023-01-27T15:55:31.579Z,0.10
2023-01-27T15:58:31.023Z,0.20
2023-01-27T16:01:04.535Z,0.20
2023-01-27T16:03:39.097Z,0.20
2023-01-27T16:06:18.497Z,0.20
2023-01-27T16:08:55.479Z,0.20
2023-01-27T16:11:41.185Z,0.20
2023-01-27T16:14:46.842Z,0.20
2023-01-27T16:17:25.030Z,0.10
2023-01-27T16:20:25.320Z,0.10
2023-01-27T16:23:05.213Z,0.10
2023-01-27T16:25:45.799Z,0.10
2023-01-27T16:28:22.912Z,0.20
2023-01-27T16:31:08.454Z,0.30
2023-01-27T16:33:44.393Z,0.30
2023-01-27T16:36:26.225Z,0.10
2023-01-27T16:39:06.939Z,0.20
2023-01-27T16:41:42.876Z,0.20
2023-01-27T16:44:25.467Z,0.20
2023-01-27T16:47:14.925Z,0.20
2023-01-27T16:49:48.969Z,0.20
2023-01-27T16:52:35.935Z,0.30
2023-01-27T16:55:24.682Z,0.10
2023-01-27T16:57:58.620Z,0.10
2023-01-27T17:00:33.170Z,0.00
2023-01-27T17:03:08.306Z,0.10
2023-01-27T17:05:41.019Z,0.00
2023-01-27T17:08:27.537Z,0.10
2023-01-27T17:11:11.131Z,0.10
2023-01-27T17:13:48.724Z,0.10
2023-01-27T17:16:27.613Z,0.20
2023-01-27T17:19:00.685Z,0.20
2023-01-27T17:21:36.373Z,0.10
2023-01-27T17:24:17.155Z,0.20
2023-01-27T17:27:01.491Z,0.20
2023-01-27T17:29:38.512Z,0.30
2023-01-27T17:32:23.472Z,0.30
2023-01-27T17:34:57.785Z,0.20
2023-01-27T17:37:29.275Z,0.30
2023-01-27T17:40:02.385Z,0.30
2023-01-27T17:42:37.432Z,0.40
2023-01-27T17:45:30.482Z,0.40
2023-01-27T17:48:02.561Z,0.40
2023-01-27T17:50:40.241Z,0.40
2023-01-27T17:53:15.480Z,0.20
2023-01-27T17:55:45.727Z,0.20
2023-01-27T17:58:32.909Z,0.20
2023-01-27T18:01:03.082Z,0.20
2023-01-27T18:03:38.298Z,0.10
2023-01-27T18:06:14.336Z,0.00
2023-01-27T18:08:54.274Z,0.10
2023-01-27T18:11:31.518Z,0.00
2023-01-27T18:14:20.024Z,0.00
2023-01-27T18:17:04.169Z,0.00
2023-01-27T18:19:35.505Z,0.00
2023-01-27T18:22:15.308Z,0.00
2023-01-27T18:24:57.840Z,0.00
2023-01-27T18:27:34.535Z,0.00
2023-01-27T18:30:19.495Z,0.00
2023-01-27T18:32:54.379Z,0.00
2023-01-27T18:35:29.161Z,0.10
2023-01-27T18:38:02.827Z,0.10
2023-01-27T18:40:36.620Z,0.10
2023-01-27T18:43:08.864Z,0.20
2023-01-27T18:45:42.405Z,0.20
2023-01-27T18:48:16.534Z,0.30
2023-01-27T18:50:50.610Z,0.40
2023-01-27T18:53:23.367Z,0.30
2023-01-27T18:55:53.772Z,0.30
2023-01-27T18:58:24.209Z,0.30
2023-01-27T19:01:01.197Z,0.20
2023-01-27T19:03:34.834Z,0.40
2023-01-27T19:06:06.196Z,0.40
2023-01-27T19:08:39.161Z,0.30
2023-01-27T19:11:09.738Z,0.30
2023-01-27T19:13:39.956Z,0.20
2023-01-27T19:16:22.005Z,0.20
2023-01-27T19:18:52.567Z,0.10
2023-01-27T19:21:22.762Z,0.20
2023-01-27T19:23:55.031Z,0.20
2023-01-27T19:26:28.385Z,0.20
2023-01-27T19:29:59.948Z,0.10
2023-01-27T19:32:48.242Z,0.10
2023-01-27T19:35:19.379Z,0.10
2023-01-27T19:37:50.526Z,0.10
2023-01-27T19:40:35.080Z,0.10
2023-01-27T19:43:05.850Z,0.10
2023-01-27T19:45:36.449Z,0.00
2023-01-27T19:48:17.058Z,0.00
2023-01-27T19:50:48.016Z,-0.10
2023-01-27T19:53:21.672Z,0.00
2023-01-27T19:55:58.015Z,0.00
2023-01-27T19:58:30.857Z,0.10
2023-01-27T20:01:02.027Z,0.10
2023-01-27T20:03:37.876Z,0.20
2023-01-27T20:06:19.823Z,0.20
2023-01-27T20:08:52.150Z,0.20
2023-01-27T20:11:37.145Z,0.30
2023-01-27T20:14:15.136Z,0.30
2023-01-27T20:16:46.392Z,0.30
2023-01-27T20:19:21.749Z,0.30
2023-01-27T20:21:54.170Z,0.30
2023-01-27T20:24:27.624Z,0.30
2023-01-27T20:26:58.736Z,0.30
2023-01-27T20:29:29.327Z,0.30
2023-01-27T20:31:59.690Z,0.40
2023-01-27T20:34:34.201Z,0.40
2023-01-27T20:37:05.287Z,0.30
2023-01-27T20:39:36.742Z,0.30
2023-01-27T20:42:07.632Z,0.40
2023-01-27T20:44:38.104Z,0.40
2023-01-27T20:47:08.693Z,0.30
2023-01-27T20:49:41.877Z,0.30
2023-01-27T20:52:13.042Z,0.30
2023-01-27T20:54:43.287Z,0.30
2023-01-27T20:57:13.417Z,0.10
2023-01-27T20:59:43.586Z,0.10
2023-01-27T21:02:14.329Z,0.10
2023-01-27T21:04:47.155Z,0.10
2023-01-27T21:07:18.239Z,0.00
2023-01-27T21:09:48.613Z,0.00
2023-01-27T21:12:19.322Z,0.00
2023-01-27T21:14:50.232Z,0.10
2023-01-27T21:17:20.572Z,0.10
2023-01-27T21:19:53.873Z,0.20
2023-01-27T21:22:24.211Z,0.20
2023-01-27T21:24:54.308Z,0.30
2023-01-27T21:27:24.466Z,0.30
2023-01-27T21:29:55.094Z,0.20
2023-01-27T21:32:25.832Z,0.30
2023-01-27T21:34:59.963Z,0.20
2023-01-27T21:37:30.270Z,0.30
2023-01-27T21:40:00.787Z,0.40
2023-01-27T21:42:43.398Z,0.40
2023-01-27T21:45:17.247Z,0.40
2023-01-27T21:47:47.519Z,0.50
2023-01-27T21:50:20.766Z,0.50
2023-01-27T21:52:53.947Z,0.40
2023-01-27T21:55:27.154Z,0.30
2023-01-27T21:57:59.695Z,0.30
2023-01-27T22:00:32.275Z,0.20
2023-01-27T22:03:05.188Z,0.10
2023-01-27T22:05:40.424Z,0.10
2023-01-27T22:08:10.573Z,0.20
2023-01-27T22:10:40.957Z,0.20
2023-01-27T22:13:12.494Z,0.30
2023-01-27T22:15:42.679Z,0.20
2023-01-27T22:18:13.492Z,0.30
2023-01-27T22:20:46.276Z,0.40
2023-01-27T22:23:16.499Z,0.40
2023-01-27T22:25:51.640Z,0.30
2023-01-27T22:28:23.130Z,0.30
2023-01-27T22:30:54.147Z,0.30
2023-01-27T22:33:25.099Z,0.40
2023-01-27T22:36:05.802Z,0.30
2023-01-27T22:38:41.185Z,0.40
2023-01-27T22:41:11.538Z,0.40
2023-01-27T22:43:41.756Z,0.40
2023-01-27T22:46:12.004Z,0.20
2023-01-27T22:48:42.231Z,0.30
2023-01-27T22:51:15.431Z,0.20
2023-01-27T22:53:46.403Z,0.30
2023-01-27T22:56:16.639Z,0.40
2023-01-27T22:58:46.819Z,0.60
2023-01-27T23:01:17.691Z,0.50
2023-01-27T23:03:47.909Z,0.60
2023-01-27T23:06:21.240Z,0.60
2023-01-27T23:08:51.355Z,0.60
2023-01-27T23:11:21.599Z,0.50
2023-01-27T23:13:51.739Z,0.50
2023-01-27T23:16:23.520Z,0.60
2023-01-27T23:18:53.870Z,0.60
2023-01-27T23:21:26.656Z,0.40
2023-01-27T23:23:57.232Z,0.50
2023-01-27T23:26:27.460Z,0.60
2023-01-27T23:28:57.637Z,0.60
2023-01-27T23:31:28.354Z,0.50
2023-01-27T23:33:58.561Z,0.50
2023-01-27T23:36:31.445Z,0.50
2023-01-27T23:39:01.945Z,0.70
2023-01-27T23:41:32.525Z,0.50
2023-01-27T23:44:02.910Z,0.50
2023-01-27T23:46:33.083Z,0.60
2023-01-27T23:49:03.286Z,0.40
2023-01-27T23:51:36.202Z,0.50
2023-01-27T23:54:07.012Z,0.50
2023-01-27T23:56:37.276Z,0.50
2023-01-27T23:59:07.387Z,0.60
